createdAt,value
2019-01-25T00:01:06.886Z,65.30
2019-01-25T00:03:39.845Z,71.60
2019-01-25T00:06:12.928Z,76.47
2019-01-25T00:08:45.424Z,71.43
2019-01-25T00:11:17.941Z,73.10
2019-01-25T00:13:50.746Z,67.57
2019-01-25T00:16:23.140Z,72.20
2019-01-25T00:18:55.635Z,69.83
2019-01-25T00:21:28.231Z,64.93
2019-01-25T00:24:00.934Z,71.77
2019-01-25T00:26:33.757Z,66.73
2019-01-25T00:29:06.934Z,72.47
2019-01-25T00:31:39.483Z,70.30
2019-01-25T00:34:12.123Z,66.47
2019-01-25T00:36:44.666Z,69.73
2019-01-25T00:39:17.332Z,75.50
2019-01-25T00:41:49.983Z,73.87
2019-01-25T00:44:22.729Z,66.27
2019-01-25T00:46:55.564Z,64.40
2019-01-25T00:49:29.002Z,67.57
2019-01-25T00:52:01.746Z,67.77
2019-01-25T00:54:34.286Z,62.50
2019-01-25T00:57:07.232Z,57.93
2019-01-25T00:59:40.071Z,57.57
2019-01-25T01:02:12.913Z,69.87
2019-01-25T01:04:45.582Z,68.60
2019-01-25T01:07:18.406Z,66.37
2019-01-25T01:09:51.048Z,76.30
2019-01-25T01:12:23.632Z,60.97
2019-01-25T01:14:56.028Z,75.87
2019-01-25T01:17:28.688Z,64.23
2019-01-25T01:20:01.089Z,59.77
2019-01-25T01:22:33.588Z,66.10
2019-01-25T01:25:06.433Z,60.47
2019-01-25T01:27:39.024Z,62.63
2019-01-25T01:30:21.294Z,63.07
2019-01-25T01:32:55.200Z,58.37
2019-01-25T01:35:27.592Z,58.23
2019-01-25T01:38:00.317Z,70.07
2019-01-25T01:40:32.818Z,62.20
2019-01-25T01:43:05.424Z,66.00
2019-01-25T01:45:37.928Z,62.00
2019-01-25T01:48:10.631Z,66.57
2019-01-25T01:50:43.117Z,59.77
2019-01-25T01:53:15.725Z,55.57
2019-01-25T01:55:48.431Z,61.90
2019-01-25T01:58:20.921Z,61.67
2019-01-25T02:00:53.525Z,61.40
2019-01-25T02:03:26.134Z,54.33
2019-01-25T02:05:58.532Z,53.17
2019-01-25T02:08:31.321Z,63.60
2019-01-25T02:11:04.029Z,41.03
2019-01-25T02:13:36.725Z,61.33
2019-01-25T02:16:09.328Z,64.87
2019-01-25T02:18:41.819Z,52.43
2019-01-25T02:21:15.767Z,65.50
2019-01-25T02:23:48.473Z,61.93
2019-01-25T02:26:20.978Z,55.83
2019-01-25T02:28:53.486Z,53.57
2019-01-25T02:31:25.884Z,62.77
2019-01-25T02:33:58.292Z,53.93
2019-01-25T02:36:30.796Z,58.50
2019-01-25T02:39:03.409Z,60.53
2019-01-25T02:41:36.003Z,59.90
2019-01-25T02:44:08.076Z,52.97
2019-01-25T02:46:40.053Z,59.60
2019-01-25T02:49:12.070Z,54.50
2019-01-25T02:51:44.121Z,47.57
2019-01-25T02:54:16.432Z,56.80
2019-01-25T02:56:48.453Z,44.60
2019-01-25T02:59:20.487Z,58.03
2019-01-25T03:01:52.534Z,47.83
2019-01-25T03:04:24.552Z,49.67
2019-01-25T03:06:56.595Z,49.60
2019-01-25T03:09:28.641Z,61.57
2019-01-25T03:12:00.736Z,58.33
2019-01-25T03:14:32.776Z,55.97
2019-01-25T03:17:05.043Z,66.73
2019-01-25T03:19:37.125Z,47.43
2019-01-25T03:22:10.408Z,53.57
2019-01-25T03:24:42.496Z,46.93
2019-01-25T03:27:14.469Z,49.87
2019-01-25T03:29:47.263Z,59.00
2019-01-25T03:32:19.304Z,56.20
2019-01-25T03:34:52.216Z,46.10
2019-01-25T03:37:28.500Z,48.37
2019-01-25T03:40:00.596Z,42.87
2019-01-25T03:42:40.015Z,42.67
2019-01-25T03:45:14.029Z,54.93
2019-01-25T03:47:48.946Z,43.43
2019-01-25T03:50:27.440Z,53.80
2019-01-25T03:52:59.829Z,46.57
2019-01-25T03:55:33.888Z,49.87
2019-01-25T03:58:06.048Z,48.43
2019-01-25T04:00:41.393Z,48.97
2019-01-25T04:03:15.008Z,50.17
2019-01-25T04:05:47.031Z,49.30
2019-01-25T04:08:19.005Z,45.73
2019-01-25T04:10:51.202Z,50.40
2019-01-25T04:13:23.256Z,51.67
2019-01-25T04:15:55.601Z,50.60
2019-01-25T04:18:27.643Z,52.77
2019-01-25T04:21:00.236Z,49.80
2019-01-25T04:23:32.674Z,49.27
2019-01-25T04:26:05.109Z,46.57
2019-01-25T04:28:37.085Z,55.70
2019-01-25T04:31:10.070Z,59.23
2019-01-25T04:33:42.975Z,59.63
2019-01-25T04:36:14.992Z,53.57
2019-01-25T04:38:46.972Z,54.30
2019-01-25T04:41:19.064Z,48.90
2019-01-25T04:43:51.320Z,50.47
2019-01-25T04:46:23.330Z,50.20
2019-01-25T04:48:55.308Z,53.87
2019-01-25T04:51:27.327Z,55.00
2019-01-25T04:53:59.301Z,51.90
2019-01-25T04:56:38.137Z,57.13
2019-01-25T04:59:10.410Z,60.70
2019-01-25T05:01:42.508Z,55.50
2019-01-25T05:04:14.558Z,60.33
2019-01-25T05:06:46.567Z,58.10
2019-01-25T05:09:18.836Z,51.10
2019-01-25T05:11:52.940Z,67.60
2019-01-25T05:14:25.336Z,53.57
2019-01-25T05:16:57.692Z,53.43
2019-01-25T05:19:39.040Z,52.03
2019-01-25T05:22:13.467Z,51.37
2019-01-25T05:24:45.729Z,56.43
2019-01-25T05:27:17.816Z,57.43
2019-01-25T05:29:57.228Z,50.97
2019-01-25T05:32:31.148Z,56.40
2019-01-25T05:35:03.135Z,64.97
2019-01-25T05:37:38.918Z,46.37
2019-01-25T05:40:14.380Z,63.07
2019-01-25T05:42:49.097Z,49.30
2019-01-25T05:45:22.980Z,46.33
2019-01-25T05:47:56.357Z,61.20
2019-01-25T05:50:30.242Z,67.60
2019-01-25T05:53:04.380Z,63.27
2019-01-25T05:55:36.530Z,55.23
2019-01-25T05:58:09.520Z,56.87
2019-01-25T06:00:42.790Z,58.03
2019-01-25T06:03:19.380Z,60.77
2019-01-25T06:05:52.829Z,62.53
2019-01-25T06:08:35.407Z,62.77
2019-01-25T06:11:14.384Z,54.63
2019-01-25T06:13:47.657Z,54.03
2019-01-25T06:16:19.845Z,52.70
2019-01-25T06:18:52.679Z,53.13
2019-01-25T06:21:24.652Z,54.23
2019-01-25T06:23:57.493Z,51.80
2019-01-25T06:26:29.467Z,50.60
2019-01-25T06:29:01.480Z,58.83
2019-01-25T06:31:33.452Z,55.27
2019-01-25T06:34:05.537Z,57.93
2019-01-25T06:36:37.517Z,50.90
2019-01-25T06:39:11.350Z,49.33
2019-01-25T06:41:44.161Z,44.87
2019-01-25T06:44:16.470Z,54.53
2019-01-25T06:46:48.454Z,60.00
2019-01-25T06:49:20.470Z,50.27
2019-01-25T06:51:52.442Z,54.83
2019-01-25T06:54:24.524Z,51.57
2019-01-25T06:56:57.475Z,52.47
2019-01-25T06:59:37.473Z,58.50
2019-01-25T07:02:23.039Z,59.53
2019-01-25T07:04:55.041Z,57.90
2019-01-25T07:07:31.434Z,50.97
2019-01-25T07:10:03.490Z,57.90
2019-01-25T07:12:35.464Z,63.87
2019-01-25T07:15:09.623Z,59.23
2019-01-25T07:17:41.609Z,59.33
2019-01-25T07:20:14.884Z,59.63
2019-01-25T07:22:46.860Z,59.07
2019-01-25T07:25:19.101Z,63.00
2019-01-25T07:27:51.074Z,65.77
2019-01-25T07:30:23.103Z,54.80
2019-01-25T07:32:55.443Z,54.47
2019-01-25T07:35:27.531Z,54.07
2019-01-25T07:37:59.505Z,53.97
2019-01-25T07:40:31.595Z,61.37
2019-01-25T07:43:03.785Z,58.63
2019-01-25T07:45:35.869Z,60.80
2019-01-25T07:48:08.122Z,54.80
2019-01-25T07:50:40.209Z,50.00
2019-01-25T07:53:12.562Z,61.43
2019-01-25T07:55:44.694Z,53.40
2019-01-25T07:58:16.761Z,53.77
2019-01-25T08:00:48.936Z,59.93
2019-01-25T08:03:20.906Z,55.27
2019-01-25T08:05:52.978Z,62.07
2019-01-25T08:08:25.002Z,65.47
2019-01-25T08:10:57.117Z,59.90
2019-01-25T08:13:29.264Z,56.77
2019-01-25T08:16:01.390Z,63.63
2019-01-25T08:18:33.411Z,51.67
2019-01-25T08:21:05.488Z,56.87
2019-01-25T08:23:37.553Z,55.93
2019-01-25T08:26:09.744Z,64.50
2019-01-25T08:28:41.797Z,58.33
2019-01-25T08:31:13.981Z,61.67
2019-01-25T08:33:46.032Z,71.40
2019-01-25T08:36:18.168Z,60.87
2019-01-25T08:38:50.218Z,52.80
2019-01-25T08:41:22.336Z,61.50
2019-01-25T08:43:54.361Z,55.17
2019-01-25T08:46:26.443Z,51.40
2019-01-25T08:48:58.510Z,62.13
2019-01-25T08:51:30.609Z,58.90
2019-01-25T08:54:02.569Z,53.77
2019-01-25T08:56:34.785Z,56.80
2019-01-25T08:59:07.143Z,54.97
2019-01-25T09:01:39.236Z,46.93
2019-01-25T09:04:11.384Z,58.00
2019-01-25T09:06:43.392Z,54.60
2019-01-25T09:09:15.415Z,58.57
2019-01-25T09:11:47.493Z,56.03
2019-01-25T09:14:19.477Z,54.77
2019-01-25T09:16:51.486Z,52.63
2019-01-25T09:19:23.472Z,51.07
2019-01-25T09:21:55.490Z,50.97
2019-01-25T09:24:27.467Z,46.43
2019-01-25T09:26:59.465Z,47.80
2019-01-25T09:29:31.446Z,55.97
2019-01-25T09:32:03.458Z,55.67
2019-01-25T09:34:35.450Z,59.90
2019-01-25T09:37:07.461Z,58.23
2019-01-25T09:39:39.515Z,60.83
2019-01-25T09:42:11.525Z,52.97
2019-01-25T09:44:43.497Z,56.40
2019-01-25T09:47:15.512Z,52.40
2019-01-25T09:49:47.557Z,57.57
2019-01-25T09:52:19.562Z,58.07
2019-01-25T09:54:51.540Z,54.70
2019-01-25T09:57:24.708Z,60.57
2019-01-25T09:59:56.712Z,52.27
2019-01-25T10:02:28.782Z,70.90
2019-01-25T10:05:00.745Z,71.73
2019-01-25T10:07:32.755Z,61.97
2019-01-25T10:10:05.106Z,55.47
2019-01-25T10:12:43.283Z,60.87
2019-01-25T10:15:14.901Z,58.43
2019-01-25T10:17:47.084Z,66.60
2019-01-25T10:20:20.277Z,58.17
2019-01-25T10:22:52.376Z,51.47
2019-01-25T10:25:24.433Z,49.20
2019-01-25T10:27:56.440Z,49.70
2019-01-25T10:30:28.930Z,48.57
2019-01-25T10:33:01.030Z,47.40
2019-01-25T10:35:33.172Z,49.70
2019-01-25T10:38:05.388Z,46.10
2019-01-25T10:40:37.438Z,44.37
2019-01-25T10:43:09.603Z,42.97
2019-01-25T10:45:42.538Z,40.23
2019-01-25T10:48:14.554Z,41.63
2019-01-25T10:50:46.599Z,50.43
2019-01-25T10:53:18.632Z,38.63
2019-01-25T10:55:50.696Z,41.23
2019-01-25T10:58:23.505Z,46.23
2019-01-25T11:00:55.548Z,42.57
2019-01-25T11:03:27.619Z,47.53
2019-01-25T11:05:59.598Z,40.20
2019-01-25T11:08:32.906Z,43.07
2019-01-25T11:11:06.063Z,45.50
2019-01-25T11:13:38.137Z,46.47
2019-01-25T11:16:11.978Z,39.43
2019-01-25T11:18:43.835Z,37.00
2019-01-25T11:21:15.803Z,37.17
2019-01-25T11:23:47.982Z,40.00
2019-01-25T11:26:19.948Z,48.27
2019-01-25T11:28:51.964Z,41.07
2019-01-25T11:31:24.017Z,41.97
2019-01-25T11:33:56.030Z,40.70
2019-01-25T11:36:27.994Z,41.67
2019-01-25T11:39:00.006Z,37.20
2019-01-25T11:41:32.052Z,40.03
2019-01-25T11:44:04.160Z,104.53
2019-01-25T11:46:36.251Z,115.27
2019-01-25T11:49:08.333Z,55.50
2019-01-25T11:51:40.302Z,45.83
2019-01-25T11:54:12.308Z,42.37
2019-01-25T11:56:44.375Z,39.13
2019-01-25T11:59:16.376Z,38.50
2019-01-25T12:01:48.347Z,39.67
2019-01-25T12:04:20.349Z,37.07
2019-01-25T12:06:52.326Z,38.37
2019-01-25T12:09:24.332Z,38.63
2019-01-25T12:11:56.649Z,35.13
2019-01-25T12:14:29.153Z,35.87
2019-01-25T12:17:01.112Z,40.27
2019-01-25T12:19:33.126Z,36.70
2019-01-25T12:22:05.097Z,35.37
2019-01-25T12:24:37.107Z,40.33
2019-01-25T12:27:09.150Z,31.97
2019-01-25T12:29:41.154Z,33.53
2019-01-25T12:32:13.122Z,39.87
2019-01-25T12:34:45.209Z,39.63
2019-01-25T12:37:17.250Z,32.03
2019-01-25T12:39:49.267Z,32.40
2019-01-25T12:42:21.304Z,23.93
2019-01-25T12:44:53.308Z,38.47
2019-01-25T12:47:25.288Z,27.60
2019-01-25T12:50:05.113Z,35.27
2019-01-25T12:52:37.083Z,31.23
2019-01-25T12:55:09.599Z,33.10
2019-01-25T12:57:41.663Z,37.13
2019-01-25T13:00:16.618Z,37.10
2019-01-25T13:02:48.580Z,33.40
2019-01-25T13:05:21.028Z,33.53
2019-01-25T13:07:53.267Z,31.77
2019-01-25T13:10:26.291Z,33.27
2019-01-25T13:12:58.460Z,37.57
2019-01-25T13:15:30.594Z,33.37
2019-01-25T13:18:02.554Z,33.60
2019-01-25T13:20:39.515Z,31.20
2019-01-25T13:23:10.472Z,35.20
2019-01-25T13:25:47.103Z,34.10
2019-01-25T13:28:16.165Z,32.83
2019-01-25T13:30:48.500Z,33.50
2019-01-25T13:33:20.567Z,34.40
2019-01-25T13:35:52.576Z,35.27
2019-01-25T13:38:24.636Z,33.33
2019-01-25T13:40:56.639Z,35.23
2019-01-25T13:43:28.614Z,38.30
2019-01-25T13:46:00.696Z,33.77
2019-01-25T13:48:32.961Z,29.53
2019-01-25T13:51:05.167Z,35.33
2019-01-25T13:53:37.216Z,34.23
2019-01-25T13:56:09.323Z,34.77
2019-01-25T13:58:41.620Z,34.37
2019-01-25T14:01:13.716Z,37.53
2019-01-25T14:03:45.680Z,32.17
2019-01-25T14:06:17.698Z,37.13
2019-01-25T14:08:50.034Z,39.57
2019-01-25T14:11:22.117Z,39.13
2019-01-25T14:13:54.166Z,34.80
2019-01-25T14:16:26.284Z,38.17
2019-01-25T14:18:58.319Z,47.67
2019-01-25T14:21:30.339Z,39.23
2019-01-25T14:24:02.323Z,36.57
2019-01-25T14:26:35.500Z,26.83
2019-01-25T14:29:07.864Z,30.70
2019-01-25T14:31:39.875Z,27.33
2019-01-25T14:34:12.033Z,26.30
2019-01-25T14:36:44.128Z,27.73
2019-01-25T14:39:16.113Z,26.60
2019-01-25T14:41:48.171Z,26.13
2019-01-25T14:44:20.141Z,25.43
2019-01-25T14:46:52.158Z,23.00
2019-01-25T14:49:24.212Z,28.93
2019-01-25T14:51:56.294Z,24.83
2019-01-25T14:54:28.276Z,24.63
2019-01-25T14:57:00.299Z,30.47
2019-01-25T14:59:32.473Z,28.07
2019-01-25T15:02:04.571Z,26.17
2019-01-25T15:04:36.543Z,24.13
2019-01-25T15:07:08.642Z,26.20
2019-01-25T15:09:40.729Z,27.00
2019-01-25T15:12:13.035Z,27.17
2019-01-25T15:14:45.136Z,23.80
2019-01-25T15:17:17.226Z,21.63
2019-01-25T15:19:49.284Z,33.80
2019-01-25T15:22:21.587Z,33.07
2019-01-25T15:24:53.582Z,27.40
2019-01-25T15:27:25.577Z,24.20
2019-01-25T15:29:57.630Z,26.23
2019-01-25T15:32:29.634Z,22.93
2019-01-25T15:35:01.618Z,24.87
2019-01-25T15:37:33.622Z,31.00
2019-01-25T15:40:06.715Z,28.37
2019-01-25T15:42:38.899Z,27.77
2019-01-25T15:45:13.763Z,29.00
2019-01-25T15:47:46.191Z,29.23
2019-01-25T15:50:24.055Z,30.37
2019-01-25T15:52:56.992Z,32.20
2019-01-25T15:55:29.396Z,32.87
2019-01-25T15:58:01.586Z,30.50
2019-01-25T16:00:33.649Z,31.23
2019-01-25T16:03:05.867Z,29.20
2019-01-25T16:05:37.851Z,26.57
2019-01-25T16:08:10.059Z,32.57
2019-01-25T16:10:42.241Z,31.87
2019-01-25T16:13:14.335Z,32.53
2019-01-25T16:15:46.391Z,28.90
2019-01-25T16:18:18.410Z,28.87
2019-01-25T16:20:50.386Z,31.00
2019-01-25T16:23:22.403Z,30.67
2019-01-25T16:25:54.685Z,31.87
2019-01-25T16:28:26.738Z,34.20
2019-01-25T16:30:58.778Z,28.60
2019-01-25T16:33:30.806Z,40.37
2019-01-25T16:36:02.795Z,30.70
2019-01-25T16:38:34.808Z,38.30
2019-01-25T16:41:06.994Z,30.37
2019-01-25T16:43:39.074Z,32.77
2019-01-25T16:46:11.063Z,40.00
2019-01-25T16:48:43.072Z,35.87
2019-01-25T16:51:15.052Z,35.40
2019-01-25T16:53:47.066Z,35.70
2019-01-25T16:56:19.128Z,37.63
2019-01-25T16:58:51.134Z,38.30
2019-01-25T17:01:23.106Z,37.47
2019-01-25T17:03:55.107Z,30.97
2019-01-25T17:06:27.229Z,34.80
2019-01-25T17:08:59.320Z,37.43
2019-01-25T17:11:31.365Z,32.80
2019-01-25T17:14:03.379Z,39.73
2019-01-25T17:16:35.389Z,34.40
2019-01-25T17:19:07.579Z,38.90
2019-01-25T17:21:39.594Z,34.23
2019-01-25T17:24:11.625Z,41.93
2019-01-25T17:26:43.641Z,37.83
2019-01-25T17:29:15.666Z,37.27
2019-01-25T17:31:47.661Z,40.43
2019-01-25T17:34:19.673Z,43.77
2019-01-25T17:36:51.670Z,33.60
2019-01-25T17:39:23.694Z,37.67
2019-01-25T17:41:55.705Z,34.67
2019-01-25T17:44:27.797Z,40.27
2019-01-25T17:46:59.797Z,45.37
2019-01-25T17:49:31.818Z,44.77
2019-01-25T17:52:04.924Z,44.40
2019-01-25T17:54:36.935Z,40.70
2019-01-25T17:57:08.946Z,37.87
2019-01-25T17:59:41.328Z,43.73
2019-01-25T18:02:13.447Z,39.83
2019-01-25T18:04:45.459Z,52.67
2019-01-25T18:07:17.477Z,42.50
2019-01-25T18:09:49.501Z,48.27
2019-01-25T18:12:22.963Z,43.20
2019-01-25T18:14:55.052Z,56.17
2019-01-25T18:17:27.167Z,56.53
2019-01-25T18:19:59.259Z,58.87
2019-01-25T18:22:31.268Z,45.00
2019-01-25T18:25:03.280Z,32.73
2019-01-25T18:27:35.311Z,45.43
2019-01-25T18:30:18.793Z,35.67
2019-01-25T18:32:50.902Z,36.70
2019-01-25T18:35:23.356Z,45.53
2019-01-25T18:37:55.514Z,44.47
2019-01-25T18:40:27.546Z,43.00
2019-01-25T18:42:59.621Z,34.47
2019-01-25T18:45:31.636Z,37.97
2019-01-25T18:48:04.777Z,38.50
2019-01-25T18:50:36.894Z,40.87
2019-01-25T18:53:08.979Z,40.63
2019-01-25T18:55:41.147Z,35.50
2019-01-25T18:58:13.148Z,40.70
2019-01-25T19:00:45.164Z,47.13
2019-01-25T19:03:17.243Z,36.50
2019-01-25T19:05:49.272Z,41.03
2019-01-25T19:08:21.290Z,48.87
2019-01-25T19:10:53.739Z,39.47
2019-01-25T19:13:25.751Z,40.43
2019-01-25T19:15:57.760Z,42.30
2019-01-25T19:18:29.776Z,40.80
2019-01-25T19:21:01.886Z,43.07
2019-01-25T19:23:33.893Z,33.00
2019-01-25T19:26:06.014Z,45.73
2019-01-25T19:28:38.017Z,39.13
2019-01-25T19:31:10.150Z,45.70
2019-01-25T19:33:42.237Z,39.50
2019-01-25T19:36:14.342Z,36.00
2019-01-25T19:38:46.347Z,33.17
2019-01-25T19:41:18.362Z,35.77
2019-01-25T19:43:50.459Z,35.70
2019-01-25T19:46:22.491Z,38.53
2019-01-25T19:48:57.032Z,39.17
2019-01-25T19:51:29.229Z,33.10
2019-01-25T19:54:01.425Z,39.20
2019-01-25T19:56:35.609Z,38.10
2019-01-25T19:59:10.704Z,39.83
2019-01-25T20:01:46.059Z,40.30
2019-01-25T20:04:18.171Z,43.37
2019-01-25T20:06:50.203Z,49.17
2019-01-25T20:09:22.284Z,36.53
2019-01-25T20:11:54.340Z,36.90
2019-01-25T20:14:30.484Z,42.07
2019-01-25T20:17:02.926Z,39.30
2019-01-25T20:19:34.942Z,54.87
2019-01-25T20:22:08.159Z,55.97
2019-01-25T20:24:40.259Z,44.40
2019-01-25T20:27:12.292Z,46.97
2019-01-25T20:29:44.418Z,55.60
2019-01-25T20:32:16.511Z,57.27
2019-01-25T20:34:48.521Z,48.67
2019-01-25T20:37:20.623Z,61.23
2019-01-25T20:39:52.633Z,64.03
2019-01-25T20:42:25.598Z,51.53
2019-01-25T20:44:57.609Z,42.13
2019-01-25T20:47:29.768Z,62.60
2019-01-25T20:50:01.888Z,61.67
2019-01-25T20:52:34.940Z,44.33
2019-01-25T20:55:08.419Z,48.47
2019-01-25T20:57:40.539Z,36.50
2019-01-25T21:00:22.983Z,42.77
2019-01-25T21:02:55.025Z,44.67
2019-01-25T21:05:27.032Z,40.10
2019-01-25T21:07:59.384Z,32.53
2019-01-25T21:10:31.767Z,30.90
2019-01-25T21:13:05.379Z,30.83
2019-01-25T21:15:37.530Z,31.33
2019-01-25T21:18:09.719Z,33.40
2019-01-25T21:20:45.518Z,32.30
2019-01-25T21:23:17.806Z,31.83
2019-01-25T21:25:49.917Z,29.53
2019-01-25T21:28:22.030Z,39.37
2019-01-25T21:30:54.123Z,34.50
2019-01-25T21:33:26.774Z,35.83
2019-01-25T21:35:58.942Z,31.27
2019-01-25T21:38:30.961Z,29.63
2019-01-25T21:41:02.978Z,29.90
2019-01-25T21:43:34.975Z,27.93
2019-01-25T21:46:07.104Z,35.93
2019-01-25T21:48:39.115Z,35.30
2019-01-25T21:51:11.131Z,36.17
2019-01-25T21:53:43.137Z,32.53
2019-01-25T21:56:15.156Z,39.43
2019-01-25T21:58:47.172Z,34.00
2019-01-25T22:01:19.394Z,29.73
2019-01-25T22:03:51.404Z,26.17
2019-01-25T22:06:23.662Z,31.47
2019-01-25T22:08:55.910Z,21.37
2019-01-25T22:11:28.123Z,27.23
2019-01-25T22:14:00.134Z,28.97
2019-01-25T22:16:32.504Z,32.03
2019-01-25T22:19:04.614Z,25.40
2019-01-25T22:21:36.973Z,30.27
2019-01-25T22:24:09.094Z,23.80
2019-01-25T22:26:41.094Z,20.97
2019-01-25T22:29:13.362Z,28.23
2019-01-25T22:31:45.364Z,28.87
2019-01-25T22:34:18.146Z,30.33
2019-01-25T22:36:50.331Z,26.53
2019-01-25T22:39:22.353Z,29.23
2019-01-25T22:41:54.353Z,27.90
2019-01-25T22:44:26.344Z,21.43
2019-01-25T22:46:58.353Z,24.97
2019-01-25T22:49:30.372Z,28.83
2019-01-25T22:52:02.369Z,35.20
2019-01-25T22:54:34.398Z,28.07
2019-01-25T22:57:06.641Z,27.73
2019-01-25T22:59:38.772Z,30.17
2019-01-25T23:02:11.310Z,29.93
2019-01-25T23:05:21.030Z,25.43
2019-01-25T23:07:53.101Z,30.80
2019-01-25T23:10:25.560Z,28.50
2019-01-25T23:12:57.558Z,29.17
2019-01-25T23:15:29.583Z,28.97
2019-01-25T23:18:01.801Z,26.70
2019-01-25T23:20:34.114Z,25.37
2019-01-25T23:23:06.197Z,28.30
2019-01-25T23:25:38.208Z,24.60
2019-01-25T23:28:10.306Z,24.70
2019-01-25T23:30:42.323Z,29.20
2019-01-25T23:33:14.415Z,24.83
2019-01-25T23:35:46.444Z,27.00
2019-01-25T23:38:18.507Z,27.00
2019-01-25T23:40:50.586Z,25.47
2019-01-25T23:43:22.666Z,22.70
2019-01-25T23:45:55.210Z,29.23
2019-01-25T23:48:27.284Z,21.60
2019-01-25T23:50:59.391Z,22.57
2019-01-25T23:53:31.398Z,27.80
2019-01-25T23:56:03.397Z,28.80
2019-01-25T23:58:35.362Z,28.90
